Westwood Rainier — C6SI3 — position and weather

sailwx.info

Track history (hours):
 
Tides and Currents Weather Stations Pressure Air Temp Water Temp Dewpoint Dewpoint Depression Visibility Wind Speed Wind Dir Waves Ship Positions

Westwood Rainier

Last reported at 2017-Jul-28 06:00 UTC. Time now 2017-Jul-28 06:51 UTC.
Position N 48°00' E 166°42'.

Type: Cargo ship. MMSI: 311348993.

Wind from 220 at 16 knots

Barometer 1031.5 mb
Air temperature 14.0 ° C
Visibility: greater than 10.8 NM
Dewpoint 12.2 ° C
Water temperature 10.0 ° C

Date/timePositionNaut miles runAvg speedWind from/ knotsBaromVisibWave heightAir tempDewpointWater temp
2017-Jul-28 06:00N 48°00' E 166°42'73030.4 220 / 161031.510.8 14.012.210.0
2017-Jul-27 06:00N 49°42' W 175°00'19216.0 230 / 151039.1 0.0 12.012.0 8.0
2017-Jul-26 18:00N 50°12' W 179°54'   290 / 151038.6 5.4 12.010.1 8.0
2017-Jul-24 00:00N 51°36' W 153°36'54115.0 360 / 81022.8 5.4 16.012.414.0
2017-Jul-22 12:00N 49°54' W 139°36'34414.3 250 / 181013.4 5.4 12.010.110.0
2017-Jul-21 12:00N 48°30' W 131°06'18314.6 200 / 121014.4 5.4 16.010.413.0
2017-Jul-20 23:27N 48°31' W 126°30'714.8
2017-Jul-20 23:00N 48°31' W 126°20'714.6
2017-Jul-20 22:30N 48°31' W 126°09'714.2
2017-Jul-20 22:00N 48°31' W 125°58'714.7
2017-Jul-20 21:30N 48°31' W 125°47'815.2
2017-Jul-20 21:00N 48°31' W 125°36'714.7
2017-Jul-20 20:30N 48°31' W 125°25'714.6
2017-Jul-20 20:00N 48°30' W 125°14'814.6
2017-Jul-20 19:28N 48°31' W 125°02'715.0
2017-Jul-20 18:59N 48°31' W 124°51'714.8
2017-Jul-20 18:30N 48°30' W 124°40'814.7
2017-Jul-20 17:57N 48°27' W 124°29'714.8
2017-Jul-20 17:30N 48°24' W 124°20'814.8
2017-Jul-20 16:59N 48°21' W 124°09'715.0
2017-Jul-20 16:30N 48°18' W 123°59'815.6
2017-Jul-20 15:59N 48°17' W 123°47'917.2
2017-Jul-20 15:29N 48°16' W 123°34'713.9
2017-Jul-20 15:00N 48°20' W 123°27'9 9.4
2017-Jul-20 14:00N 48°24' W 123°14'917.1
2017-Jul-20 13:30N 48°33' W 123°13'917.6
2017-Jul-20 13:00N 48°41' W 123°15'917.0
2017-Jul-20 12:30N 48°46' W 123°04'612.2
2017-Jul-20 12:00N 48°52' W 123°04'815.4
2017-Jul-20 11:30N 48°57' W 123°13'815.4
2017-Jul-20 10:59N 49°02' W 123°22'714.0
2017-Jul-20 10:30N 49°09' W 123°23'815.1
2017-Jul-20 10:00N 49°16' W 123°20'713.5
2017-Jul-20 09:30N 49°19' W 123°10'3 6.8
2017-Jul-20 09:00N 49°18' W 123°06'0 0.5
2017-Jul-20 08:30N 49°17' W 123°06'0 0.0
2017-Jul-20 08:00N 49°17' W 123°06'0 0.0
2017-Jul-20 07:30N 49°17' W 123°06'0 0.0
2017-Jul-20 07:00N 49°17' W 123°06'0 0.0
2017-Jul-20 06:30N 49°17' W 123°06'0 0.0
2017-Jul-20 06:00N 49°17' W 123°06'0 0.0
2017-Jul-20 05:30N 49°17' W 123°06'0 0.0
2017-Jul-20 05:00N 49°17' W 123°06'0 0.0
2017-Jul-20 04:30N 49°17' W 123°06'0 0.1
2017-Jul-20 04:00N 49°17' W 123°06'0 0.1
2017-Jul-20 03:30N 49°17' W 123°06'0 0.0
2017-Jul-20 03:00N 49°17' W 123°06'0 0.0
2017-Jul-20 02:30N 49°17' W 123°06'0 0.0
2017-Jul-20 02:00N 49°17' W 123°06'0 0.0
2017-Jul-20 01:30N 49°17' W 123°06'0 0.0
2017-Jul-20 01:00N 49°17' W 123°06'0 0.0
2017-Jul-20 00:30N 49°17' W 123°06'0 0.0
2017-Jul-20 00:00N 49°17' W 123°06'0 0.0
2017-Jul-19 23:30N 49°17' W 123°06'0 0.0
2017-Jul-19 23:00N 49°17' W 123°06'0 0.0
2017-Jul-19 22:30N 49°17' W 123°06'0 0.1
2017-Jul-19 22:01N 49°17' W 123°06'3 6.1
2017-Jul-19 21:30N 49°19' W 123°10'713.8
2017-Jul-19 21:00N 49°15' W 123°19'715.2
2017-Jul-19 20:30N 49°07' W 123°20'815.2
2017-Jul-19 19:59N 49°00' W 123°15'816.2
2017-Jul-19 19:30N 48°55' W 123°06'815.8
2017-Jul-19 19:01N 48°49' W 122°60'815.7
2017-Jul-19 18:30N 48°43' W 123°09'612.3
2017-Jul-19 18:01N 48°38' W 123°14'714.3
2017-Jul-19 17:30N 48°31' W 123°11'714.6
2017-Jul-19 17:00N 48°24' W 123°12'815.1
2017-Jul-19 16:30N 48°21' W 123°23'714.2
2017-Jul-19 16:01N 48°15' W 123°26'611.2
2017-Jul-19 15:30N 48°10' W 123°22'611.9
2017-Jul-19 15:00N 48°11' W 123°13'815.4
2017-Jul-19 14:29N 48°12' W 123°02'816.1
2017-Jul-19 13:59N 48°11' W 122°49'817.2
2017-Jul-19 13:29N 48°06' W 122°39'918.2
2017-Jul-19 13:00N 47°58' W 122°34'816.8
2017-Jul-19 12:30N 47°51' W 122°28'815.8
2017-Jul-19 12:00N 47°43' W 122°26'815.6
2017-Jul-19 11:30N 47°35' W 122°27'815.8
2017-Jul-19 11:00N 47°28' W 122°24'612.6
2017-Jul-19 10:30N 47°21' W 122°23'510.0
2017-Jul-19 10:00N 47°17' W 122°26'1 0.4
2017-Jul-19 08:38N 47°16' W 122°25'0 0.0
2017-Jul-19 08:20N 47°16' W 122°25'0 0.0
2017-Jul-19 07:56N 47°16' W 122°25'0 0.0
2017-Jul-19 07:26N 47°16' W 122°25'0 0.0
2017-Jul-19 04:02N 47°16' W 122°25'0 0.0
2017-Jul-19 03:44N 47°16' W 122°25'0 0.0
2017-Jul-19 03:29N 47°16' W 122°25'0 0.0
2017-Jul-19 01:50N 47°16' W 122°25'0 0.0
2017-Jul-19 01:20N 47°16' W 122°25'0 0.0
2017-Jul-18 21:12N 47°16' W 122°25'0 0.3
2017-Jul-18 21:00N 47°16' W 122°25'1 2.8
2017-Jul-18 20:30N 47°17' W 122°26'5 9.8
2017-Jul-18 20:00N 47°22' W 122°24'713.5
2017-Jul-18 19:30N 47°29' W 122°25'816.1
2017-Jul-18 19:00N 47°36' W 122°28'815.9
2017-Jul-18 18:30N 47°44' W 122°27'815.8
2017-Jul-18 18:00N 47°52' W 122°29'815.5
2017-Jul-18 17:30N 47°58' W 122°36'916.5
2017-Jul-18 16:59N 48°07' W 122°40'816.4
2017-Jul-18 16:30N 48°11' W 122°50'714.5
2017-Jul-18 16:00N 48°12' W 123°01'713.7
2017-Jul-18 15:31N 48°12' W 123°11'713.3
2017-Jul-18 15:01N 48°10' W 123°21'10 9.9
2017-Jul-18 13:59N 48°13' W 123°36'612.1
2017-Jul-18 13:30N 48°13' W 123°44'611.3
2017-Jul-18 13:01N 48°13' W 123°53'612.8
2017-Jul-18 12:30N 48°15' W 124°02'713.4
2017-Jul-18 12:00N 48°18' W 124°11'612.8
2017-Jul-18 11:31N 48°21' W 124°20'612.6
2017-Jul-18 11:01N 48°23' W 124°28'612.7
2017-Jul-18 10:31N 48°26' W 124°37'612.0
2017-Jul-18 10:00N 48°29' W 124°45'712.7
2017-Jul-18 09:29N 48°29' W 124°55'611.5
2017-Jul-18 09:00N 48°26' W 125°02'714.4
2017-Jul-18 08:31N 48°19' W 125°06'714.3
2017-Jul-18 08:01N 48°12' W 125°09'713.9
2017-Jul-18 07:30N 48°06' W 125°11'714.6
2017-Jul-18 07:00N 47°59' W 125°15'714.5
2017-Jul-18 06:30N 47°52' W 125°17'714.6
2017-Jul-18 06:00N 47°44' W 125°16'  
Track history (hours):
 
Tides and Currents Weather Stations Pressure Air Temp Water Temp Dewpoint Dewpoint Depression Visibility Wind Speed Wind Dir Waves Ship Positions

Westwood Rainier

Last reported at 2017-Jul-28 06:00 UTC. Time now 2017-Jul-28 06:51 UTC.
Position N 48°00' E 166°42'.

Type: Cargo ship. MMSI: 311348993.

Wind from 220 at 16 knots

Barometer 1031.5 mb
Air temperature 14.0 ° C
Visibility: greater than 10.8 NM
Dewpoint 12.2 ° C
Water temperature 10.0 ° C

Date/timePositionNaut miles runAvg speedWind from/ knotsBaromVisibWave heightAir tempDewpointWater temp
2017-Jul-28 06:00N 48°00' E 166°42'73030.4 220 / 161031.510.8 14.012.210.0
2017-Jul-27 06:00N 49°42' W 175°00'19216.0 230 / 151039.1 0.0 12.012.0 8.0
2017-Jul-26 18:00N 50°12' W 179°54'   290 / 151038.6 5.4 12.010.1 8.0
2017-Jul-24 00:00N 51°36' W 153°36'54115.0 360 / 81022.8 5.4 16.012.414.0
2017-Jul-22 12:00N 49°54' W 139°36'34414.3 250 / 181013.4 5.4 12.010.110.0
2017-Jul-21 12:00N 48°30' W 131°06'18314.6 200 / 121014.4 5.4 16.010.413.0
2017-Jul-20 23:27N 48°31' W 126°30'714.8
2017-Jul-20 23:00N 48°31' W 126°20'714.6
2017-Jul-20 22:30N 48°31' W 126°09'714.2
2017-Jul-20 22:00N 48°31' W 125°58'714.7
2017-Jul-20 21:30N 48°31' W 125°47'815.2
2017-Jul-20 21:00N 48°31' W 125°36'714.7
2017-Jul-20 20:30N 48°31' W 125°25'714.6
2017-Jul-20 20:00N 48°30' W 125°14'814.6
2017-Jul-20 19:28N 48°31' W 125°02'715.0
2017-Jul-20 18:59N 48°31' W 124°51'714.8
2017-Jul-20 18:30N 48°30' W 124°40'814.7
2017-Jul-20 17:57N 48°27' W 124°29'714.8
2017-Jul-20 17:30N 48°24' W 124°20'814.8
2017-Jul-20 16:59N 48°21' W 124°09'715.0
2017-Jul-20 16:30N 48°18' W 123°59'815.6
2017-Jul-20 15:59N 48°17' W 123°47'917.2
2017-Jul-20 15:29N 48°16' W 123°34'713.9
2017-Jul-20 15:00N 48°20' W 123°27'9 9.4
2017-Jul-20 14:00N 48°24' W 123°14'917.1
2017-Jul-20 13:30N 48°33' W 123°13'917.6
2017-Jul-20 13:00N 48°41' W 123°15'917.0
2017-Jul-20 12:30N 48°46' W 123°04'612.2
2017-Jul-20 12:00N 48°52' W 123°04'815.4
2017-Jul-20 11:30N 48°57' W 123°13'815.4
2017-Jul-20 10:59N 49°02' W 123°22'714.0
2017-Jul-20 10:30N 49°09' W 123°23'815.1
2017-Jul-20 10:00N 49°16' W 123°20'713.5
2017-Jul-20 09:30N 49°19' W 123°10'3 6.8
2017-Jul-20 09:00N 49°18' W 123°06'0 0.5
2017-Jul-20 08:30N 49°17' W 123°06'0 0.0
2017-Jul-20 08:00N 49°17' W 123°06'0 0.0
2017-Jul-20 07:30N 49°17' W 123°06'0 0.0
2017-Jul-20 07:00N 49°17' W 123°06'0 0.0
2017-Jul-20 06:30N 49°17' W 123°06'0 0.0
2017-Jul-20 06:00N 49°17' W 123°06'0 0.0
2017-Jul-20 05:30N 49°17' W 123°06'0 0.0
2017-Jul-20 05:00N 49°17' W 123°06'0 0.0
2017-Jul-20 04:30N 49°17' W 123°06'0 0.1
2017-Jul-20 04:00N 49°17' W 123°06'0 0.1
2017-Jul-20 03:30N 49°17' W 123°06'0 0.0
2017-Jul-20 03:00N 49°17' W 123°06'0 0.0
2017-Jul-20 02:30N 49°17' W 123°06'0 0.0
2017-Jul-20 02:00N 49°17' W 123°06'0 0.0
2017-Jul-20 01:30N 49°17' W 123°06'0 0.0
2017-Jul-20 01:00N 49°17' W 123°06'0 0.0
2017-Jul-20 00:30N 49°17' W 123°06'0 0.0
2017-Jul-20 00:00N 49°17' W 123°06'0 0.0
2017-Jul-19 23:30N 49°17' W 123°06'0 0.0
2017-Jul-19 23:00N 49°17' W 123°06'0 0.0
2017-Jul-19 22:30N 49°17' W 123°06'0 0.1
2017-Jul-19 22:01N 49°17' W 123°06'3 6.1
2017-Jul-19 21:30N 49°19' W 123°10'713.8
2017-Jul-19 21:00N 49°15' W 123°19'715.2
2017-Jul-19 20:30N 49°07' W 123°20'815.2
2017-Jul-19 19:59N 49°00' W 123°15'816.2
2017-Jul-19 19:30N 48°55' W 123°06'815.8
2017-Jul-19 19:01N 48°49' W 122°60'815.7
2017-Jul-19 18:30N 48°43' W 123°09'612.3
2017-Jul-19 18:01N 48°38' W 123°14'714.3
2017-Jul-19 17:30N 48°31' W 123°11'714.6
2017-Jul-19 17:00N 48°24' W 123°12'815.1
2017-Jul-19 16:30N 48°21' W 123°23'714.2
2017-Jul-19 16:01N 48°15' W 123°26'611.2
2017-Jul-19 15:30N 48°10' W 123°22'611.9
2017-Jul-19 15:00N 48°11' W 123°13'815.4
2017-Jul-19 14:29N 48°12' W 123°02'816.1
2017-Jul-19 13:59N 48°11' W 122°49'817.2
2017-Jul-19 13:29N 48°06' W 122°39'918.2
2017-Jul-19 13:00N 47°58' W 122°34'816.8
2017-Jul-19 12:30N 47°51' W 122°28'815.8
2017-Jul-19 12:00N 47°43' W 122°26'815.6
2017-Jul-19 11:30N 47°35' W 122°27'815.8
2017-Jul-19 11:00N 47°28' W 122°24'612.6
2017-Jul-19 10:30N 47°21' W 122°23'510.0
2017-Jul-19 10:00N 47°17' W 122°26'1 0.4
2017-Jul-19 08:38N 47°16' W 122°25'0 0.0
2017-Jul-19 08:20N 47°16' W 122°25'0 0.0
2017-Jul-19 07:56N 47°16' W 122°25'0 0.0
2017-Jul-19 07:26N 47°16' W 122°25'0 0.0
2017-Jul-19 04:02N 47°16' W 122°25'0 0.0
2017-Jul-19 03:44N 47°16' W 122°25'0 0.0
2017-Jul-19 03:29N 47°16' W 122°25'0 0.0
2017-Jul-19 01:50N 47°16' W 122°25'0 0.0
2017-Jul-19 01:20N 47°16' W 122°25'0 0.0
2017-Jul-18 21:12N 47°16' W 122°25'0 0.3
2017-Jul-18 21:00N 47°16' W 122°25'1 2.8
2017-Jul-18 20:30N 47°17' W 122°26'5 9.8
2017-Jul-18 20:00N 47°22' W 122°24'713.5
2017-Jul-18 19:30N 47°29' W 122°25'816.1
2017-Jul-18 19:00N 47°36' W 122°28'815.9
2017-Jul-18 18:30N 47°44' W 122°27'815.8
2017-Jul-18 18:00N 47°52' W 122°29'815.5
2017-Jul-18 17:30N 47°58' W 122°36'916.5
2017-Jul-18 16:59N 48°07' W 122°40'816.4
2017-Jul-18 16:30N 48°11' W 122°50'714.5
2017-Jul-18 16:00N 48°12' W 123°01'713.7
2017-Jul-18 15:31N 48°12' W 123°11'713.3
2017-Jul-18 15:01N 48°10' W 123°21'10 9.9
2017-Jul-18 13:59N 48°13' W 123°36'612.1
2017-Jul-18 13:30N 48°13' W 123°44'611.3
2017-Jul-18 13:01N 48°13' W 123°53'612.8
2017-Jul-18 12:30N 48°15' W 124°02'713.4
2017-Jul-18 12:00N 48°18' W 124°11'612.8
2017-Jul-18 11:31N 48°21' W 124°20'612.6
2017-Jul-18 11:01N 48°23' W 124°28'612.7
2017-Jul-18 10:31N 48°26' W 124°37'612.0
2017-Jul-18 10:00N 48°29' W 124°45'712.7
2017-Jul-18 09:29N 48°29' W 124°55'611.5
2017-Jul-18 09:00N 48°26' W 125°02'714.4
2017-Jul-18 08:31N 48°19' W 125°06'714.3
2017-Jul-18 08:01N 48°12' W 125°09'713.9
2017-Jul-18 07:30N 48°06' W 125°11'714.6
2017-Jul-18 07:00N 47°59' W 125°15'714.5
2017-Jul-18 06:30N 47°52' W 125°17'714.6
2017-Jul-18 06:00N 47°44' W 125°16'  

Dump ship's entire track history